Time;durP1;ratioP1;P1;durP2;ratioP2;P2;SDS_P1;SDS_P2;PMS_P1;PMS_P2;Temp;Humidity;BMP_temperature;BMP_pressure;BME280_temperature;BME280_humidity;BME280_pressure;Samples;Min_cycle;Max_cycle;Signal;HPM_P1;HPM_P2
2023/08/24 00:01:04;;;;;;;3.20;3.00;;;27.00;55.30;;;;;;225936;1254;24215;-64
2023/08/24 00:06:10;;;;;;;3.60;2.90;;;27.10;54.90;;;;;;222265;1263;24221;-63
2023/08/24 00:11:14;;;;;;;3.40;2.80;;;27.00;55.10;;;;;;222484;1268;22636;-63
2023/08/24 00:16:19;;;;;;;3.50;2.80;;;26.90;55.40;;;;;;222439;1267;196075;-63
2023/08/24 00:21:25;;;;;;;3.60;2.90;;;26.90;55.70;;;;;;222437;1262;25400;-65
2023/08/24 00:26:27;;;;;;;3.50;2.90;;;26.90;55.80;;;;;;222441;1267;22515;-63
2023/08/24 00:31:30;;;;;;;3.10;2.80;;;26.90;55.80;;;;;;222663;1269;25517;-63
2023/08/24 00:36:34;;;;;;;3.30;2.80;;;26.80;56.10;;;;;;222711;1264;22515;-64
2023/08/24 00:41:37;;;;;;;4.80;3.00;;;26.80;56.20;;;;;;222630;1254;24364;-63
2023/08/24 00:46:41;;;;;;;3.40;3.10;;;26.80;56.10;;;;;;222608;1247;22514;-62
2023/08/24 00:51:44;;;;;;;3.20;2.80;;;26.80;56.20;;;;;;222624;1267;22577;-62
2023/08/24 00:56:47;;;;;;;3.50;2.70;;;26.80;56.70;;;;;;222280;1259;22567;-63
2023/08/24 01:01:53;;;;;;;2.90;2.70;;;26.80;56.30;;;;;;222236;1248;25389;-63
2023/08/24 01:06:56;;;;;;;3.20;2.90;;;26.70;56.50;;;;;;222094;1264;24202;-63
2023/08/24 01:12:28;;;;;;;2.90;2.60;;;26.80;56.40;;;;;;222569;1268;22636;-63
2023/08/24 01:17:32;;;;;;;;;;;26.80;56.80;;;;;;222525;1263;22526;-63
2023/08/24 01:22:58;;;;;;;3.30;3.00;;;26.80;56.50;;;;;;222505;1269;25507;-64
2023/08/24 01:28:02;;;;;;;3.10;2.90;;;26.80;56.60;;;;;;222492;1267;22540;-62
2023/08/24 01:33:05;;;;;;;2.80;2.60;;;26.70;56.60;;;;;;222408;1264;22521;-63
2023/08/24 01:38:13;;;;;;;3.10;2.70;;;26.80;56.80;;;;;;222397;1269;25395;-63
2023/08/24 01:43:18;;;;;;;2.70;2.50;;;26.80;56.60;;;;;;222347;1263;22579;-62
2023/08/24 01:48:36;;;;;;;2.60;2.40;;;26.80;57.00;;;;;;221959;1267;22737;-62
2023/08/24 01:53:41;;;;;;;3.90;2.90;;;26.80;56.70;;;;;;224642;1269;25147;-62
2023/08/24 01:58:43;;;;;;;4.00;2.40;;;26.80;56.50;;;;;;228504;1268;25274;-62
2023/08/24 02:03:46;;;;;;;2.60;2.40;;;26.90;56.30;;;;;;222191;1268;22525;-62
2023/08/24 02:08:49;;;;;;;2.30;2.10;;;26.90;56.30;;;;;;222414;1269;22598;-63
2023/08/24 02:13:52;;;;;;;3.60;2.50;;;26.80;56.60;;;;;;222546;1266;22739;-65
2023/08/24 02:18:55;;;;;;;3.10;2.40;;;26.70;56.90;;;;;;222152;1269;22626;-64
2023/08/24 02:23:59;;;;;;;5.50;2.40;;;26.70;56.90;;;;;;222573;1267;22537;-64
2023/08/24 02:29:02;;;;;;;2.90;2.60;;;26.70;56.90;;;;;;222447;1264;25321;-64
2023/08/24 02:34:05;;;;;;;3.20;2.50;;;26.70;57.10;;;;;;222452;1265;22595;-62
2023/08/24 02:39:08;;;;;;;3.10;2.90;;;26.70;57.20;;;;;;222406;1264;24655;-63
2023/08/24 02:44:11;;;;;;;2.50;2.30;;;26.70;57.10;;;;;;222392;1267;22515;-64
2023/08/24 02:49:14;;;;;;;2.40;2.30;;;26.70;57.20;;;;;;222133;1264;22523;-62
2023/08/24 02:54:19;;;;;;;4.20;2.90;;;26.70;57.20;;;;;;222560;1266;22640;-64
2023/08/24 02:59:24;;;;;;;2.60;2.30;;;26.70;57.30;;;;;;222275;1264;22494;-63
2023/08/24 03:04:27;;;;;;;2.60;2.40;;;26.70;57.30;;;;;;222465;1268;23936;-62
2023/08/24 03:09:30;;;;;;;4.10;2.60;;;26.70;57.30;;;;;;222631;1264;22523;-64
2023/08/24 03:14:33;;;;;;;2.80;2.60;;;26.70;57.50;;;;;;222377;1269;22571;-62
2023/08/24 03:19:36;;;;;;;4.60;2.70;;;26.60;57.40;;;;;;222651;1264;22518;-65
2023/08/24 03:24:39;;;;;;;2.80;2.60;;;26.60;57.60;;;;;;222644;1267;22518;-63
2023/08/24 03:29:42;;;;;;;2.70;2.50;;;26.60;57.60;;;;;;222278;1269;23901;-65
2023/08/24 03:34:45;;;;;;;2.50;2.30;;;26.60;57.60;;;;;;222320;1266;22528;-63
2023/08/24 03:39:48;;;;;;;2.70;2.30;;;26.60;57.80;;;;;;222540;1263;22521;-64
2023/08/24 03:44:53;;;;;;;3.80;2.30;;;26.60;57.90;;;;;;222825;1263;22554;-65
2023/08/24 03:49:56;;;;;;;2.40;2.20;;;26.60;57.90;;;;;;222431;1269;22642;-61
2023/08/24 03:54:59;;;;;;;2.70;2.50;;;26.60;57.90;;;;;;222337;1266;25164;-63
2023/08/24 04:00:07;;;;;;;2.50;2.30;;;26.50;57.90;;;;;;222645;1264;25613;-62
2023/08/24 04:05:15;;;;;;;2.30;2.20;;;26.50;57.80;;;;;;222608;1269;22627;-63
2023/08/24 04:10:18;;;;;;;2.70;2.50;;;26.60;57.90;;;;;;222567;1253;22517;-63
2023/08/24 04:15:22;;;;;;;2.60;2.40;;;26.60;57.80;;;;;;222526;1269;24235;-62
2023/08/24 04:20:28;;;;;;;2.90;2.40;;;26.60;57.70;;;;;;222770;1263;22511;-63
2023/08/24 04:25:31;;;;;;;2.50;2.30;;;26.70;58.10;;;;;;222625;1263;22551;-63
2023/08/24 04:30:34;;;;;;;2.90;2.20;;;26.60;57.80;;;;;;222289;1269;22510;-61
2023/08/24 04:35:37;;;;;;;2.70;2.20;;;26.60;57.80;;;;;;223958;1263;22520;-62
2023/08/24 04:40:54;;;;;;;2.30;2.10;;;26.60;57.20;;;;;;222253;1262;22525;-64
2023/08/24 04:45:56;;;;;;;2.60;2.40;;;26.60;58.10;;;;;;222379;1257;24198;-62
2023/08/24 04:51:02;;;;;;;2.90;2.30;;;26.60;57.80;;;;;;222811;1253;25473;-63
2023/08/24 04:56:05;;;;;;;2.80;2.40;;;26.50;58.00;;;;;;222794;1250;22566;-63
2023/08/24 05:01:08;;;;;;;2.70;2.50;;;26.50;58.20;;;;;;222343;1258;22511;-63
2023/08/24 05:06:11;;;;;;;2.60;2.40;;;26.50;57.90;;;;;;222225;1263;22541;-62
2023/08/24 05:11:16;;;;;;;2.40;2.20;;;26.50;58.00;;;;;;222509;1263;22766;-61
2023/08/24 05:16:22;;;;;;;3.60;2.60;;;26.50;58.10;;;;;;222514;1260;24208;-63
2023/08/24 05:21:25;;;;;;;2.50;2.30;;;26.50;58.10;;;;;;222023;1263;22658;-63
2023/08/24 05:26:28;;;;;;;3.60;2.60;;;26.50;58.10;;;;;;222211;1263;23973;-61
2023/08/24 05:31:30;;;;;;;4.50;2.70;;;26.40;58.10;;;;;;222069;1253;22509;-63
2023/08/24 05:36:33;;;;;;;2.50;2.30;;;26.40;58.10;;;;;;224306;1266;22518;-62
2023/08/24 05:41:37;;;;;;;4.10;2.70;;;26.40;57.50;;;;;;222195;1266;22543;-62
2023/08/24 05:46:40;;;;;;;7.30;2.30;;;26.40;57.60;;;;;;222406;1253;24192;-64
2023/08/24 05:51:45;;;;;;;4.70;2.60;;;26.40;58.00;;;;;;222339;1257;22607;-65
2023/08/24 05:56:48;;;;;;;2.90;2.70;;;26.40;57.80;;;;;;222376;1268;22557;-63
2023/08/24 06:01:51;;;;;;;6.90;2.70;;;26.50;59.40;;;;;;222329;1268;22521;-66
2023/08/24 06:06:54;;;;;;;3.60;2.70;;;26.40;59.00;;;;;;222443;1260;22524;-62
2023/08/24 06:11:57;;;;;;;4.20;3.10;;;26.30;59.20;;;;;;222617;1256;22614;-60
2023/08/24 06:17:02;;;;;;;6.50;4.10;;;26.30;59.20;;;;;;222767;1263;22640;-59
2023/08/24 06:22:08;;;;;;;6.40;3.20;;;26.30;59.00;;;;;;222548;1263;22543;-57
2023/08/24 06:27:14;;;;;;;6.20;3.40;;;26.20;59.50;;;;;;222551;1257;22660;-57
2023/08/24 06:32:20;;;;;;;9.00;3.00;;;26.00;59.10;;;;;;225084;1266;24321;-56
2023/08/24 06:37:27;;;;;;;4.80;2.90;;;25.80;59.00;;;;;;222447;1260;25340;-57
2023/08/24 06:42:33;;;;;;;6.10;3.00;;;25.90;59.30;;;;;;222434;1269;22591;-55
2023/08/24 06:47:39;;;;;;;5.30;3.70;;;25.80;59.10;;;;;;222873;1264;24022;-58
2023/08/24 06:52:42;;;;;;;5.60;3.10;;;25.90;59.00;;;;;;222699;1260;24742;-58
2023/08/24 06:57:50;;;;;;;4.40;2.80;;;26.00;58.60;;;;;;222925;1256;22730;-55
2023/08/24 07:02:56;;;;;;;6.50;3.20;;;25.90;58.60;;;;;;222484;1267;22508;-57
2023/08/24 07:08:00;;;;;;;8.10;3.30;;;26.00;58.90;;;;;;222591;1260;25427;-56
2023/08/24 07:13:07;;;;;;;5.60;2.90;;;26.00;58.80;;;;;;222962;1269;22536;-56
2023/08/24 07:18:11;;;;;;;7.60;2.80;;;26.10;58.70;;;;;;222414;1263;24073;-58
2023/08/24 07:23:16;;;;;;;7.30;3.70;;;25.90;58.50;;;;;;222297;1264;23145;-58
2023/08/24 07:28:20;;;;;;;10.10;3.10;;;25.90;59.10;;;;;;222489;1265;25377;-57
2023/08/24 07:33:24;;;;;;;4.10;2.80;;;26.00;58.80;;;;;;222283;1265;24199;-58
2023/08/24 07:38:29;;;;;;;6.60;2.80;;;26.00;58.90;;;;;;222362;1253;24301;-58
2023/08/24 07:43:34;;;;;;;5.10;2.80;;;26.10;59.10;;;;;;222639;1263;22519;-58
2023/08/24 07:48:39;;;;;;;5.10;3.50;;;26.10;59.30;;;;;;222562;1269;24170;-56
2023/08/24 07:53:43;;;;;;;5.80;2.80;;;26.10;59.00;;;;;;222739;1266;22636;-59
2023/08/24 07:58:47;;;;;;;3.90;3.10;;;26.10;59.20;;;;;;222877;1267;24252;-58
2023/08/24 08:03:50;;;;;;;5.50;3.10;;;26.00;59.10;;;;;;222583;1254;25328;-59
2023/08/24 08:08:53;;;;;;;3.20;2.50;;;26.00;59.20;;;;;;222384;1266;23923;-59
2023/08/24 08:13:56;;;;;;;8.30;3.10;;;26.00;58.80;;;;;;222568;1263;24373;-59
2023/08/24 08:18:59;;;;;;;3.20;2.50;;;26.00;58.30;;;;;;222377;1255;22456;-56
2023/08/24 08:24:02;;;;;;;6.20;3.10;;;26.00;58.30;;;;;;222698;1263;22507;-55
2023/08/24 08:29:05;;;;;;;5.70;2.40;;;26.10;58.00;;;;;;222630;1263;22514;-56
2023/08/24 08:34:08;;;;;;;6.90;3.00;;;26.10;58.20;;;;;;222250;1260;22626;-55
2023/08/24 08:39:11;;;;;;;4.50;2.50;;;26.00;57.70;;;;;;222556;1261;22537;-57
2023/08/24 08:44:15;;;;;;;2.50;2.10;;;26.00;57.40;;;;;;222346;1263;22636;-59
2023/08/24 08:49:19;;;;;;;3.30;2.40;;;26.00;57.30;;;;;;223059;1262;26548;-58
2023/08/24 08:54:22;;;;;;;4.00;2.30;;;26.10;57.30;;;;;;222585;1265;22525;-58
2023/08/24 08:59:29;;;;;;;6.10;2.50;;;26.20;57.20;;;;;;222399;1268;24195;-59
2023/08/24 09:04:33;;;;;;;8.40;2.50;;;26.20;57.10;;;;;;222902;1259;24321;-55
2023/08/24 09:09:37;;;;;;;3.30;2.30;;;26.40;56.60;;;;;;222884;1263;22533;-57
2023/08/24 09:14:41;;;;;;;2.80;2.30;;;26.40;57.30;;;;;;222527;1253;22528;-56
2023/08/24 09:19:44;;;;;;;7.00;2.40;;;26.40;57.30;;;;;;222504;1263;22511;-57
2023/08/24 09:24:51;;;;;;;6.80;2.60;;;26.40;57.20;;;;;;222549;1263;25333;-54
2023/08/24 09:29:54;;;;;;;2.80;2.40;;;26.60;56.90;;;;;;222231;1254;24213;-55
2023/08/24 09:35:20;;;;;;;5.00;2.30;;;26.70;56.50;;;;;;222405;1268;22517;-57
2023/08/24 09:40:26;;;;;;;4.30;2.20;;;26.90;56.20;;;;;;222892;1260;23925;-58
2023/08/24 09:45:30;;;;;;;5.00;2.60;;;27.00;56.60;;;;;;222734;1268;22518;-57
2023/08/24 09:50:34;;;;;;;4.20;2.00;;;27.00;56.50;;;;;;222664;1266;22522;-56
2023/08/24 09:55:41;;;;;;;6.70;2.40;;;27.00;56.90;;;;;;222649;1260;25505;-51
2023/08/24 10:00:46;;;;;;;4.80;2.40;;;27.20;56.30;;;;;;222712;1264;22971;-50
2023/08/24 10:06:00;;;;;;;4.40;2.40;;;27.40;54.90;;;;;;222630;1266;22606;-51
2023/08/24 10:11:11;;;;;;;3.10;2.10;;;27.40;54.50;;;;;;222438;1266;24183;-52
2023/08/24 10:16:19;;;;;;;2.10;1.90;;;27.60;53.60;;;;;;222434;1260;22530;-51
2023/08/24 10:21:25;;;;;;;7.00;1.80;;;27.50;54.30;;;;;;222221;1269;23594;-52
2023/08/24 10:26:27;;;;;;;3.80;2.10;;;27.50;54.70;;;;;;222426;1253;22692;-50
2023/08/24 10:31:31;;;;;;;9.40;2.00;;;27.50;54.90;;;;;;222121;1266;24074;-48
2023/08/24 10:36:40;;;;;;;4.60;2.10;;;27.50;54.80;;;;;;222534;1263;22513;-52
2023/08/24 10:41:50;;;;;;;2.90;2.60;;;27.60;54.30;;;;;;222297;1267;22625;-50
2023/08/24 10:47:14;;;;;;;3.70;2.60;;;27.70;54.60;;;;;;222555;1260;22541;-49
2023/08/24 10:52:21;;;;;;;7.50;3.30;;;27.80;55.20;;;;;;222680;1262;22546;-52
2023/08/24 10:57:35;;;;;;;6.90;2.90;;;27.80;55.30;;;;;;222523;1261;24188;-52
2023/08/24 11:02:52;;;;;;;6.10;2.60;;;27.80;54.80;;;;;;222110;1263;24603;-49
2023/08/24 11:08:00;;;;;;;4.10;2.70;;;27.80;54.80;;;;;;222335;1263;24667;-47
2023/08/24 11:13:14;;;;;;;5.20;2.80;;;27.80;55.10;;;;;;222267;1265;24259;-48
2023/08/24 11:18:23;;;;;;;3.00;2.50;;;27.80;54.50;;;;;;222148;1268;22517;-49
2023/08/24 11:23:26;;;;;;;4.00;2.50;;;27.70;54.30;;;;;;222234;1269;24182;-49
2023/08/24 11:28:30;;;;;;;5.30;3.00;;;27.70;54.40;;;;;;222380;1266;22602;-50
2023/08/24 11:33:35;;;;;;;5.90;2.80;;;27.70;54.30;;;;;;222309;1265;22633;-49
2023/08/24 11:38:40;;;;;;;4.90;2.80;;;27.80;54.50;;;;;;222288;1268;22566;-51
2023/08/24 11:43:43;;;;;;;4.80;2.30;;;27.80;54.60;;;;;;222218;1263;22643;-49
2023/08/24 11:48:47;;;;;;;3.90;2.40;;;27.80;54.80;;;;;;222489;1263;24127;-51
2023/08/24 11:53:50;;;;;;;4.40;2.60;;;27.80;53.40;;;;;;222576;1263;22686;-49
2023/08/24 11:58:53;;;;;;;4.60;2.60;;;27.70;54.00;;;;;;222353;1266;24955;-55
2023/08/24 12:03:56;;;;;;;2.60;2.40;;;27.80;52.90;;;;;;222537;1261;22522;-52
2023/08/24 12:08:59;;;;;;;4.20;2.60;;;27.80;53.20;;;;;;222779;1263;22514;-49
2023/08/24 12:14:04;;;;;;;5.40;2.50;;;27.70;53.20;;;;;;222053;1266;313498;-51
2023/08/24 12:19:10;;;;;;;2.90;2.50;;;27.80;53.40;;;;;;222352;1261;24341;-51
2023/08/24 12:24:14;;;;;;;2.80;2.20;;;27.70;53.70;;;;;;222536;1260;22793;-48
2023/08/24 12:29:18;;;;;;;7.30;2.20;;;27.60;54.50;;;;;;222492;1266;22523;-51
2023/08/24 12:34:20;;;;;;;2.50;2.30;;;27.70;54.20;;;;;;222526;1263;22533;-49
2023/08/24 12:39:23;;;;;;;4.70;2.40;;;27.60;54.50;;;;;;222731;1261;24085;-51
2023/08/24 12:44:26;;;;;;;2.80;2.20;;;27.60;54.60;;;;;;222424;1269;24228;-50
2023/08/24 12:49:29;;;;;;;3.10;2.50;;;27.50;54.30;;;;;;222512;1266;24343;-51
2023/08/24 12:54:31;;;;;;;3.40;2.30;;;27.40;54.40;;;;;;222534;1266;22655;-54
2023/08/24 12:59:34;;;;;;;3.20;2.10;;;27.40;54.50;;;;;;222272;1261;22622;-52
2023/08/24 13:04:37;;;;;;;2.30;2.10;;;27.40;54.30;;;;;;222509;1268;22619;-52
2023/08/24 13:09:40;;;;;;;2.30;1.90;;;27.30;54.20;;;;;;222398;1266;22521;-50
2023/08/24 13:14:43;;;;;;;2.40;2.20;;;27.60;54.20;;;;;;222549;1266;22520;-53
2023/08/24 13:19:46;;;;;;;3.20;2.30;;;27.50;54.50;;;;;;222179;1267;24391;-54
2023/08/24 13:24:48;;;;;;;5.40;2.10;;;27.50;53.90;;;;;;222290;1267;25364;-48
2023/08/24 13:29:51;;;;;;;3.40;2.30;;;27.60;53.40;;;;;;222415;1260;25272;-52
2023/08/24 13:34:55;;;;;;;3.10;2.30;;;27.60;54.10;;;;;;222504;1260;25359;-52
2023/08/24 13:39:58;;;;;;;3.50;2.50;;;27.70;53.40;;;;;;222359;1253;25353;-48
2023/08/24 13:45:03;;;;;;;2.80;2.00;;;27.60;52.90;;;;;;222492;1267;23903;-51
2023/08/24 13:50:06;;;;;;;12.00;2.40;;;27.60;53.10;;;;;;222752;1268;24424;-53
2023/08/24 13:55:09;;;;;;;3.00;2.40;;;27.60;53.80;;;;;;222579;1266;22520;-53
2023/08/24 14:00:16;;;;;;;5.60;2.40;;;27.80;54.90;;;;;;222327;1268;22528;-52
2023/08/24 14:05:19;;;;;;;11.20;2.80;;;27.80;54.40;;;;;;222300;1246;25282;-57
2023/08/24 14:10:22;;;;;;;8.60;2.70;;;27.80;54.20;;;;;;222495;1263;22518;-52
2023/08/24 14:15:25;;;;;;;3.50;2.40;;;27.90;54.00;;;;;;222302;1263;22530;-53
2023/08/24 14:20:28;;;;;;;12.80;3.10;;;27.90;53.70;;;;;;222688;1254;22518;-53
2023/08/24 14:25:31;;;;;;;7.10;2.50;;;28.00;53.50;;;;;;222812;1254;24193;-51
2023/08/24 14:30:34;;;;;;;17.30;2.60;;;28.00;53.60;;;;;;222327;1260;22524;-55
2023/08/24 14:35:37;;;;;;;5.00;2.10;;;28.10;53.60;;;;;;222381;1260;24203;-51
2023/08/24 14:40:39;;;;;;;8.00;2.50;;;28.10;54.00;;;;;;222574;1266;22895;-54
2023/08/24 14:45:42;;;;;;;6.40;2.70;;;28.10;54.50;;;;;;222540;1266;22748;-53
2023/08/24 14:50:45;;;;;;;22.20;3.00;;;28.10;52.30;;;;;;222962;1263;25292;-56
2023/08/24 14:55:48;;;;;;;4.00;2.30;;;28.10;53.60;;;;;;222834;1268;22502;-55
2023/08/24 15:00:53;;;;;;;2.80;2.10;;;28.10;53.20;;;;;;222301;1269;24198;-57
2023/08/24 15:06:04;;;;;;;7.60;2.50;;;28.00;53.30;;;;;;222579;1268;22756;-56
2023/08/24 15:11:06;;;;;;;6.50;2.50;;;28.00;53.50;;;;;;222722;1253;25572;-53
2023/08/24 15:16:10;;;;;;;3.60;2.30;;;28.10;53.70;;;;;;222540;1268;24217;-53
2023/08/24 15:21:14;;;;;;;5.60;2.50;;;28.10;53.50;;;;;;222422;1261;24198;-51
2023/08/24 15:26:17;;;;;;;23.40;3.00;;;28.00;53.60;;;;;;222837;1261;25322;-54
2023/08/24 15:31:20;;;;;;;11.30;3.80;;;27.90;55.20;;;;;;222447;1266;22510;-53
2023/08/24 15:36:23;;;;;;;11.90;3.80;;;28.00;55.10;;;;;;222438;1268;22514;-54
2023/08/24 15:41:26;;;;;;;9.50;3.70;;;28.00;56.80;;;;;;222228;1268;22502;-52
2023/08/24 15:46:29;;;;;;;10.90;2.60;;;28.10;56.50;;;;;;222613;1268;22789;-53
2023/08/24 15:51:32;;;;;;;7.70;3.10;;;28.10;56.60;;;;;;222674;1268;22532;-51
2023/08/24 15:56:36;;;;;;;5.20;2.70;;;28.10;56.40;;;;;;222432;1253;22649;-52
2023/08/24 16:01:39;;;;;;;7.40;3.00;;;28.20;56.30;;;;;;222658;1268;25236;-47
2023/08/24 16:06:42;;;;;;;7.10;2.40;;;28.20;57.00;;;;;;222480;1268;23859;-54
2023/08/24 16:11:45;;;;;;;6.00;3.00;;;28.20;56.70;;;;;;222830;1269;22769;-53
2023/08/24 16:16:48;;;;;;;6.30;2.70;;;28.10;57.10;;;;;;222338;1268;24180;-49
2023/08/24 16:21:51;;;;;;;5.40;2.40;;;28.10;57.80;;;;;;222557;1266;22658;-54
2023/08/24 16:26:54;;;;;;;4.90;2.60;;;28.10;57.70;;;;;;222773;1267;22518;-53
2023/08/24 16:31:57;;;;;;;6.20;3.00;;;28.10;57.40;;;;;;222320;1269;22530;-54
2023/08/24 16:37:02;;;;;;;3.80;2.70;;;28.20;57.80;;;;;;222204;1254;24183;-57
2023/08/24 16:42:05;;;;;;;4.70;2.60;;;28.20;57.70;;;;;;222714;1263;22516;-54
2023/08/24 16:47:08;;;;;;;5.90;3.00;;;28.10;57.50;;;;;;222625;1268;22521;-54
2023/08/24 16:52:11;;;;;;;9.10;2.90;;;28.10;57.80;;;;;;222238;1268;22636;-51
2023/08/24 16:57:14;;;;;;;16.50;5.50;;;28.20;57.60;;;;;;222590;1263;22636;-52
2023/08/24 17:02:17;;;;;;;10.80;4.90;;;28.00;59.50;;;;;;222357;1268;22654;-54
2023/08/24 17:07:23;;;;;;;6.40;3.80;;;27.90;60.40;;;;;;222332;1268;23892;-52
2023/08/24 17:12:25;;;;;;;6.20;4.40;;;28.10;58.30;;;;;;222765;1268;23630;-50
2023/08/24 17:17:28;;;;;;;7.20;3.50;;;28.00;58.30;;;;;;222173;1261;22752;-52
2023/08/24 17:22:31;;;;;;;5.50;3.50;;;27.90;58.60;;;;;;222728;1260;22647;-51
2023/08/24 17:27:35;;;;;;;9.50;3.90;;;27.80;58.80;;;;;;222412;1263;22518;-51
2023/08/24 17:32:39;;;;;;;5.60;3.60;;;27.80;59.30;;;;;;222659;1265;22521;-53
2023/08/24 17:37:42;;;;;;;6.90;3.70;;;27.70;59.40;;;;;;222711;1257;22533;-52
2023/08/24 17:42:45;;;;;;;9.00;3.50;;;27.60;60.00;;;;;;222176;1254;25393;-53
2023/08/24 17:47:51;;;;;;;7.80;4.20;;;27.60;59.40;;;;;;222721;1268;24222;-54
2023/08/24 17:52:55;;;;;;;9.80;3.30;;;27.50;60.70;;;;;;222556;1263;22601;-54
2023/08/24 17:57:58;;;;;;;6.50;3.60;;;27.60;60.10;;;;;;222358;1263;22531;-48
2023/08/24 18:03:01;;;;;;;10.00;3.40;;;27.60;59.60;;;;;;222562;1267;24214;-51
2023/08/24 18:08:05;;;;;;;5.80;3.30;;;27.60;60.10;;;;;;222305;1267;22517;-48
2023/08/24 18:13:12;;;;;;;3.90;3.40;;;27.10;55.60;;;;;;222673;1268;24248;-47
2023/08/24 18:18:16;;;;;;;6.00;3.60;;;26.70;55.40;;;;;;222545;1265;22594;-51
2023/08/24 18:23:23;;;;;;;11.20;3.70;;;26.40;53.90;;;;;;222281;1263;22513;-48
2023/08/24 18:28:28;;;;;;;7.20;4.40;;;26.20;53.90;;;;;;222397;1266;25491;-50
2023/08/24 18:33:32;;;;;;;9.80;4.20;;;26.00;52.60;;;;;;222459;1254;24196;-48
2023/08/24 18:38:36;;;;;;;8.40;4.10;;;25.90;53.10;;;;;;222616;1260;23926;-48
2023/08/24 18:43:40;;;;;;;8.00;3.80;;;25.60;52.40;;;;;;223177;1269;22592;-50
2023/08/24 18:48:44;;;;;;;10.90;4.70;;;25.50;50.80;;;;;;222514;1263;25568;-51
2023/08/24 18:53:48;;;;;;;6.30;3.80;;;25.30;50.70;;;;;;222608;1268;24231;-49
2023/08/24 18:58:52;;;;;;;6.40;3.80;;;25.20;50.50;;;;;;222643;1268;22541;-51
2023/08/24 19:04:01;;;;;;;6.60;3.50;;;25.00;50.10;;;;;;222578;1268;22626;-47
2023/08/24 19:09:05;;;;;;;4.80;3.80;;;24.90;49.30;;;;;;222616;1260;24199;-49
2023/08/24 19:14:09;;;;;;;9.00;4.10;;;25.10;51.60;;;;;;222164;1269;25293;-47
2023/08/24 19:19:13;;;;;;;4.50;3.80;;;26.00;51.60;;;;;;222503;1266;24245;-47
2023/08/24 19:24:17;;;;;;;7.10;4.10;;;26.40;51.80;;;;;;222541;1268;22581;-49
2023/08/24 19:29:22;;;;;;;10.10;4.10;;;26.50;55.00;;;;;;222466;1268;24373;-48
2023/08/24 19:34:26;;;;;;;7.90;4.10;;;26.60;54.50;;;;;;222603;1268;24189;-51
2023/08/24 19:39:30;;;;;;;12.00;4.40;;;26.70;55.60;;;;;;222493;1269;22536;-51
2023/08/24 19:44:35;;;;;;;12.10;4.60;;;26.70;56.30;;;;;;222694;1268;24202;-46
2023/08/24 19:49:39;;;;;;;12.10;4.40;;;26.80;57.30;;;;;;222828;1266;22630;-45
2023/08/24 19:54:43;;;;;;;11.20;4.50;;;26.90;58.90;;;;;;222750;1268;25463;-47
2023/08/24 19:59:48;;;;;;;13.30;4.50;;;26.90;59.10;;;;;;222552;1254;22543;-53
2023/08/24 20:04:52;;;;;;;13.60;5.00;;;27.00;59.30;;;;;;222699;1261;24054;-52
2023/08/24 20:09:56;;;;;;;8.50;4.30;;;26.90;58.80;;;;;;222344;1269;24344;-53
2023/08/24 20:14:59;;;;;;;7.10;4.80;;;26.90;58.60;;;;;;222362;1260;24117;-49
2023/08/24 20:20:05;;;;;;;8.20;4.50;;;26.80;58.60;;;;;;222680;1268;23018;-52
2023/08/24 20:25:16;;;;;;;6.10;4.30;;;26.60;58.90;;;;;;222416;1269;22535;-50
2023/08/24 20:30:20;;;;;;;12.30;4.80;;;26.60;58.40;;;;;;222396;1268;23029;-47
2023/08/24 20:35:24;;;;;;;10.40;5.50;;;26.60;58.80;;;;;;222536;1255;24330;-50
2023/08/24 20:40:29;;;;;;;15.10;5.20;;;26.60;58.60;;;;;;222863;1264;22635;-51
2023/08/24 20:45:35;;;;;;;10.50;5.60;;;26.40;58.40;;;;;;222542;1266;22518;-48
2023/08/24 20:50:42;;;;;;;8.60;5.10;;;26.40;58.60;;;;;;222734;1261;22614;-48
2023/08/24 20:55:45;;;;;;;9.70;5.20;;;26.30;59.00;;;;;;222183;1257;22530;-48
2023/08/24 21:00:49;;;;;;;7.40;4.70;;;26.20;59.50;;;;;;222261;1268;25400;-46
2023/08/24 21:05:58;;;;;;;5.60;4.40;;;26.20;59.50;;;;;;223048;1268;22520;-52
2023/08/24 21:11:00;;;;;;;6.50;4.50;;;26.20;60.20;;;;;;222475;1258;22513;-49
2023/08/24 21:16:03;;;;;;;6.60;5.00;;;26.20;60.40;;;;;;222248;1255;22580;-53
2023/08/24 21:21:09;;;;;;;8.80;4.70;;;26.30;60.20;;;;;;222454;1268;22520;-47
2023/08/24 21:26:13;;;;;;;7.00;4.90;;;26.30;60.40;;;;;;222640;1269;22518;-47
2023/08/24 21:31:16;;;;;;;9.10;5.40;;;26.30;60.10;;;;;;222757;1264;22525;-47
2023/08/24 21:36:19;;;;;;;5.40;4.60;;;26.20;59.80;;;;;;222579;1257;22605;-49
2023/08/24 21:41:22;;;;;;;6.20;4.80;;;26.20;59.80;;;;;;222395;1261;22643;-49
2023/08/24 21:46:25;;;;;;;6.20;4.80;;;26.10;60.00;;;;;;222492;1268;22836;-48
2023/08/24 21:51:28;;;;;;;11.30;5.50;;;26.10;60.10;;;;;;222567;1267;22650;-50
2023/08/24 21:56:31;;;;;;;6.20;5.10;;;26.00;59.60;;;;;;222514;1260;23890;-53
2023/08/24 22:01:34;;;;;;;6.00;5.00;;;26.00;59.60;;;;;;222595;1264;25849;-48
2023/08/24 22:06:37;;;;;;;8.20;5.40;;;26.00;59.80;;;;;;222179;1254;23182;-48
2023/08/24 22:11:40;;;;;;;7.80;4.70;;;26.00;59.10;;;;;;222743;1264;22529;-49
2023/08/24 22:16:43;;;;;;;5.40;4.90;;;25.90;59.20;;;;;;222355;1254;22518;-60
2023/08/24 22:21:46;;;;;;;8.80;5.10;;;25.90;59.40;;;;;;222414;1260;22522;-59
2023/08/24 22:26:49;;;;;;;6.90;5.10;;;26.00;59.20;;;;;;222621;1267;22883;-57
2023/08/24 22:31:53;;;;;;;8.30;4.90;;;26.10;58.60;;;;;;222546;1261;22529;-61
2023/08/24 22:36:57;;;;;;;5.60;5.00;;;26.20;58.80;;;;;;222439;1268;22759;-56
2023/08/24 22:42:00;;;;;;;5.30;4.80;;;26.20;59.00;;;;;;222581;1260;24741;-57
2023/08/24 22:47:03;;;;;;;8.00;4.80;;;26.20;59.00;;;;;;222515;1264;22538;-58
2023/08/24 22:52:06;;;;;;;8.00;4.50;;;26.20;59.10;;;;;;222410;1261;22537;-59
2023/08/24 22:57:10;;;;;;;5.40;4.90;;;26.20;59.10;;;;;;222411;1266;23889;-58
2023/08/24 23:02:14;;;;;;;5.20;4.70;;;26.30;59.30;;;;;;222664;1264;22525;-59
2023/08/24 23:07:21;;;;;;;4.80;4.40;;;26.20;59.30;;;;;;222672;1254;25293;-58
2023/08/24 23:12:24;;;;;;;5.80;4.50;;;26.30;59.50;;;;;;222236;1254;22558;-63
2023/08/24 23:17:27;;;;;;;5.60;4.60;;;26.30;59.90;;;;;;222436;1264;22644;-58
2023/08/24 23:22:30;;;;;;;4.40;3.90;;;26.20;59.30;;;;;;222652;1266;25453;-58
2023/08/24 23:27:33;;;;;;;4.80;4.30;;;26.20;59.60;;;;;;222469;1266;22606;-58
2023/08/24 23:32:38;;;;;;;4.50;4.10;;;26.20;59.80;;;;;;222708;1264;22553;-60
2023/08/24 23:37:44;;;;;;;6.20;4.90;;;26.20;59.90;;;;;;222518;1267;22616;-57
2023/08/24 23:42:47;;;;;;;5.10;3.90;;;26.20;60.00;;;;;;222524;1267;22776;-58
2023/08/24 23:47:50;;;;;;;4.50;4.10;;;26.20;59.80;;;;;;222623;1257;22525;-57
2023/08/24 23:52:54;;;;;;;4.70;4.30;;;26.20;59.80;;;;;;222483;1267;23889;-55
2023/08/24 23:57:56;;;;;;;5.80;4.70;;;26.10;59.80;;;;;;222585;1261;22639;-57
